Flight Track Log - Related Links

Times and Time Zones

All times are in EDT time to prevent confusion due to time zone crossing. See the N770NC flight status page for this flight to view local times or setup timezone preferences in your user account.

Time Position Orientation Groundspeed Altitude Reporting Facility
EDT Latitude Longitude Course Direction KTS MPH feet Rate Location/Type
Thu 05:13:53 PM 42.0500 -87.9167 161° South 216 249 2,700  Level Chicago TRACON
Thu 05:14:53 PM 42.0500 -87.8333 90° East 272 313 4,300 1,050 Climbing Chicago TRACON
Thu 05:15:53 PM 41.9833 -87.7833 151° Southeast 302 348 4,800 350 Climbing Chicago TRACON
Thu 05:16:53 PM 41.9000 -87.7833 180° South 302 348 5,000 100 Climbing Chicago TRACON
Thu 05:17:53 PM 41.8167 -87.7667 172° South 296 341 5,000 600 Level Chicago TRACON
Thu 05:18:53 PM 41.7333 -87.7667 180° South 294 338 6,200 1,600 Climbing Chicago TRACON
Thu 05:19:00 PM 41.3314 -87.6033 161° South  Level Estimated
Thu 05:19:53 PM 41.6500 -87.7667 180° South 273 314 8,200  Level Chicago TRACON
Thu 05:20:54 PM 41.5500 -87.7833 187° South 364 419 10,000 1,752 Climbing Chicago TRACON
Thu 05:22:10 PM 41.4511 -87.7967 186° South 326 375 12,200 1,435 Climbing Chicago Center
Thu 05:23:12 PM 41.3531 -87.8089 185° South 351 404 13,300 968 Climbing Chicago Center
Thu 05:24:14 PM 41.2436 -87.7992 176° South 387 445 14,200 919 Climbing Chicago Center
Thu 05:25:16 PM 41.1256 -87.7897 177° South 416 479 15,200 1,392 Climbing Chicago Center
Thu 05:26:19 PM 40.9764 -87.7572 171° South 453 521 17,100 1,872 Climbing Chicago Center
Thu 05:27:21 PM 40.8622 -87.6956 158° South 447 514 19,100 1,452 Climbing Chicago Center
Thu 05:28:23 PM 40.7372 -87.6686 171° South 457 526 20,100 968 Climbing Chicago Center
Thu 05:29:25 PM 40.6094 -87.6442 172° South 465 535 21,100 968 Climbing Chicago Center
Thu 05:30:27 PM 40.4789 -87.6197 172° South 475 547 22,100 1,065 Climbing Chicago Center
Thu 05:31:29 PM 40.3189 -87.5753 168° South 492 566 23,300 1,065 Climbing Chicago Center
Thu 05:32:31 PM 40.1867 -87.5322 166° South 501 577 24,300 956 Climbing Chicago Center
Thu 05:33:22 PM 40.0764 -87.4967 166° South 501 577 25,100 956 Climbing Indianapolis Center
Thu 05:34:24 PM 39.9397 -87.4503 165° South 506 582 26,100 919 Climbing Indianapolis Center
Thu 05:35:26 PM 39.8047 -87.4033 165° South 506 582 27,000 968 Climbing Indianapolis Center
Thu 05:36:28 PM 39.6472 -87.3275 160° South 507 583 28,100 871 Climbing Indianapolis Center
Thu 05:37:30 PM 39.5158 -87.2603 158° South 510 587 28,800 677 Climbing Indianapolis Center
Thu 05:38:32 PM 39.3781 -87.2111 165° South 516 594 29,500 672 Climbing Indianapolis Center
Thu 05:39:35 PM 39.2392 -87.1747 169° South 514 592 30,200 720 Climbing Indianapolis Center
Thu 05:40:37 PM 39.0778 -87.1328 169° South 513 590 31,000 629 Climbing Indianapolis Center
Thu 05:41:39 PM 38.9361 -87.0981 169° South 515 593 31,500 532 Climbing Indianapolis Center
Thu 05:42:41 PM 38.7933 -87.0608 169° South 519 597 32,100 532 Climbing Indianapolis Center
Thu 05:43:43 PM 38.6511 -87.0244 169° South 519 597 32,600 435 Climbing Indianapolis Center
Thu 05:44:45 PM 38.5083 -86.9878 169° South 518 596 33,000 194 Climbing Indianapolis Center
Thu 05:45:47 PM 38.3675 -86.9522 169° South 523 602 33,000  Level Indianapolis Center
Thu 05:46:49 PM 38.2078 -86.9114 169° South 535 616 33,000  Level Indianapolis Center
Thu 05:47:51 PM 38.0606 -86.8772 170° South 532 612 33,000  Level Indianapolis Center
Thu 05:48:53 PM 37.9133 -86.8411 169° South 534 615 33,000  Level Indianapolis Center
Thu 05:49:55 PM 37.7408 -86.7797 164° South 533 613 33,000  Level Indianapolis Center
Thu 05:50:57 PM 37.5986 -86.7181 161° South 538 619 33,000  Level Indianapolis Center
Thu 05:51:59 PM 37.4706 -86.6617 161° South 539 620 33,000  Level Indianapolis Center
Thu 05:53:01 PM 37.3011 -86.5869 161° South 538 619 33,000  Level Indianapolis Center
Thu 05:54:03 PM 37.1631 -86.5244 160° South 534 615 33,000  Level Indianapolis Center
Thu 05:55:05 PM 37.0217 -86.4622 161° South 533 613 33,000  Level Indianapolis Center
Thu 05:55:20 PM 36.9953 -86.4478 156° South 535 616 33,000  Level Memphis Center
Thu 05:56:20 PM 36.8508 -86.4264 173° South 527 606 33,000  Level Memphis Center
Thu 05:57:20 PM 36.7025 -86.4156 177° South 530 610 33,000  Level Memphis Center
Thu 05:58:20 PM 36.5458 -86.4078 178° South 530 610 33,000  Level Memphis Center
Thu 05:59:20 PM 36.3997 -86.4019 178° South 524 603 33,000  Level Memphis Center
Thu 06:00:20 PM 36.2539 -86.3986 179° South 524 603 33,000  Level Memphis Center
Thu 06:01:20 PM 36.1097 -86.3928 178° South 524 603 33,000  Level Memphis Center
Thu 06:02:20 PM 35.9681 -86.3919 180° South 512 589 33,000  Level Memphis Center
Thu 06:04:20 PM 35.7036 -86.4169 184° South 499 574 33,000  Level Atlanta Center
Thu 06:05:20 PM 35.5636 -86.4333 185° South 506 582 33,000  Level Atlanta Center
Thu 06:06:20 PM 35.4275 -86.4500 186° South 506 582 33,000  Level Atlanta Center
Thu 06:07:20 PM 35.2897 -86.4636 185° South 501 577 33,000 -800 Level Atlanta Center
Thu 06:08:20 PM 35.1369 -86.4769 184° South 501 577 31,400 -1,600 Descending Atlanta Center
Thu 06:09:20 PM 34.9911 -86.4753 179° South 511 588 29,800 -1,600 Descending Atlanta Center
Thu 06:10:20 PM 34.8514 -86.4636 176° South 516 594 28,200 -1,600 Descending Atlanta Center
Thu 06:11:20 PM 34.7181 -86.4497 175° South 505 581 26,600 -1,600 Descending Atlanta Center
Thu 06:12:20 PM 34.5869 -86.4358 175° South 487 560 25,000 -1,200 Descending Atlanta Center
Thu 06:13:20 PM 34.4619 -86.4247 176° South 470 541 24,200 -550 Descending Atlanta Center
Thu 06:14:20 PM 34.3492 -86.4264 181° South 456 525 23,900 -100 Descending Atlanta Center
Thu 06:15:20 PM 34.2467 -86.3406 145° Southeast 441 507 24,000 -450 Climbing Atlanta Center
Thu 06:16:20 PM 34.1761 -86.2031 122° Southeast 434 499 23,000 -1,350 Descending Atlanta Center
Thu 06:17:20 PM 34.1114 -86.0786 122° Southeast 440 506 21,300 -1,700 Descending Atlanta Center
Thu 06:18:20 PM 34.0717 -85.9447 110° East 432 497 19,600 -1,750 Descending Atlanta Center
Thu 06:19:20 PM 34.0508 -85.7989 100° East 406 467 17,800 -1,450 Descending Atlanta Center
Thu 06:20:20 PM 34.0611 -85.6636 85° East 389 448 16,700 -1,050 Descending Atlanta Center
Thu 06:21:20 PM 34.0628 -85.5283 89° East 395 455 15,700 -1,000 Descending Atlanta Center
Thu 06:22:20 PM 34.0686 -85.3931 87° East 403 464 14,700 -850 Descending Atlanta Center
Thu 06:23:20 PM 34.0803 -85.2603 84° East 403 464 14,000 -350 Descending Atlanta Center
Thu 06:24:20 PM 34.0919 -85.1475 83° East 398 458 14,000  Level Atlanta Center
Thu 06:25:20 PM 34.0928 -85.0347 89° East 356 410 14,000 -300 Level Atlanta Center
Thu 06:26:20 PM 34.0353 -84.9411 127° Southeast 325 374 13,400 -700 Descending Atlanta Center
Thu 06:27:20 PM 33.9708 -84.8678 137° Southeast 320 368 12,600 -700 Descending Atlanta Center
Thu 06:28:20 PM 33.9086 -84.8072 141° Southeast 306 352 12,000 -396 Descending Atlanta Center
Thu 06:28:51 PM 33.8667 -84.7667 141° Southeast 291 335 12,000  Level Atlanta TRACON
Thu 06:29:51 PM 33.8000 -84.7000 140° Southeast 299 344 12,000  Level Atlanta TRACON
Thu 06:30:51 PM 33.7500 -84.6333 132° Southeast 289 333 12,000 -250 Level Atlanta TRACON
Thu 06:31:51 PM 33.7333 -84.5333 101° East 293 337 11,500 -1,100 Descending Atlanta TRACON
Thu 06:32:51 PM 33.7333 -84.4500 90° East 306 352 9,800 -1,750 Descending Atlanta TRACON
Thu 06:33:51 PM 33.7333 -84.3500 90° East 283 326 8,000 -2,000 Descending Atlanta TRACON
Thu 06:34:45 PM 33.7333 -84.2667 90° East 270 311 6,000 -1,800 Descending Atlanta TRACON
Thu 06:35:51 PM 33.6833 -84.2000 132° Southeast 237 273 4,400 -1,238 Descending Atlanta TRACON
Thu 06:36:51 PM 33.6500 -84.2500 231° Southwest 174 200 3,400 -1,000 Descending Atlanta TRACON

Login

Don't have an account? Register now (free) for customized features, flight alerts, and more!